createdAt,value
2017-08-27T00:01:39.031Z,82.55
2017-08-27T00:04:06.439Z,82.51
2017-08-27T00:06:33.850Z,82.43
2017-08-27T00:09:01.254Z,82.47
2017-08-27T00:11:28.670Z,82.46
2017-08-27T00:13:56.114Z,82.50
2017-08-27T00:16:23.510Z,82.72
2017-08-27T00:18:50.914Z,82.81
2017-08-27T00:21:18.359Z,82.99
2017-08-27T00:23:45.770Z,83.09
2017-08-27T00:26:13.171Z,83.17
2017-08-27T00:28:40.731Z,83.37
2017-08-27T00:31:08.131Z,83.58
2017-08-27T00:33:35.544Z,83.46
2017-08-27T00:36:03.348Z,83.21
2017-08-27T00:38:30.740Z,83.25
2017-08-27T00:40:58.139Z,83.32
2017-08-27T00:43:25.907Z,83.50
2017-08-27T00:45:53.306Z,83.53
2017-08-27T00:48:20.703Z,83.56
2017-08-27T00:50:48.264Z,83.61
2017-08-27T00:53:15.660Z,83.81
2017-08-27T00:55:43.054Z,83.77
2017-08-27T00:58:10.494Z,83.88
2017-08-27T01:00:37.907Z,84.01
2017-08-27T01:03:05.306Z,83.99
2017-08-27T01:05:32.867Z,84.06
2017-08-27T01:08:00.267Z,84.11
2017-08-27T01:10:28.516Z,84.03
2017-08-27T01:12:55.958Z,83.97
2017-08-27T01:15:23.414Z,83.88
2017-08-27T01:17:50.812Z,83.92
2017-08-27T01:20:18.587Z,83.95
2017-08-27T01:22:45.989Z,83.63
2017-08-27T01:25:13.382Z,83.65
2017-08-27T01:27:40.826Z,83.78
2017-08-27T01:30:08.227Z,83.87
2017-08-27T01:32:35.634Z,83.99
2017-08-27T01:35:03.201Z,84.22
2017-08-27T01:37:30.598Z,84.39
2017-08-27T01:39:58.002Z,84.31
2017-08-27T01:42:25.411Z,84.45
2017-08-27T01:44:52.811Z,84.19
2017-08-27T01:47:20.214Z,84.11
2017-08-27T01:49:47.659Z,83.88
2017-08-27T01:52:15.083Z,83.87
2017-08-27T01:54:42.478Z,83.97
2017-08-27T01:57:10.242Z,83.85
2017-08-27T01:59:37.643Z,83.88
2017-08-27T02:02:05.052Z,83.77
2017-08-27T02:04:32.491Z,83.64
2017-08-27T02:06:59.894Z,83.37
2017-08-27T02:09:27.306Z,83.02
2017-08-27T02:11:54.735Z,82.96
2017-08-27T02:14:22.127Z,82.89
2017-08-27T02:16:49.528Z,83.01
2017-08-27T02:19:16.970Z,82.95
2017-08-27T02:21:44.374Z,82.94
2017-08-27T02:24:11.775Z,82.70
2017-08-27T02:26:39.298Z,82.48
2017-08-27T02:29:06.691Z,82.66
2017-08-27T02:31:34.087Z,82.93
2017-08-27T02:34:01.639Z,82.83
2017-08-27T02:36:29.039Z,83.12
2017-08-27T02:38:56.446Z,83.35
2017-08-27T02:41:23.959Z,83.43
2017-08-27T02:43:51.361Z,83.54
2017-08-27T02:46:18.765Z,83.51
2017-08-27T02:48:46.211Z,83.49
2017-08-27T02:51:13.611Z,83.64
2017-08-27T02:53:41.016Z,83.85
2017-08-27T02:56:08.484Z,83.68
2017-08-27T02:58:35.895Z,83.64
2017-08-27T03:01:04.199Z,83.71
2017-08-27T03:03:31.670Z,83.77
2017-08-27T03:05:59.067Z,83.83
2017-08-27T03:08:26.491Z,83.83
2017-08-27T03:10:53.947Z,83.89
2017-08-27T03:13:21.342Z,84.01
2017-08-27T03:15:48.747Z,83.60
2017-08-27T03:18:16.167Z,83.26
2017-08-27T03:20:43.578Z,83.12
2017-08-27T03:23:10.998Z,83.22
2017-08-27T03:25:38.553Z,83.12
2017-08-27T03:28:05.958Z,83.32
2017-08-27T03:30:33.360Z,83.61
2017-08-27T03:33:00.926Z,83.66
2017-08-27T03:35:28.327Z,83.69
2017-08-27T03:37:55.722Z,83.75
2017-08-27T03:40:23.227Z,83.86
2017-08-27T03:42:50.623Z,83.99
2017-08-27T03:45:18.019Z,83.92
2017-08-27T03:47:45.427Z,84.01
2017-08-27T03:50:12.826Z,84.00
2017-08-27T03:52:40.218Z,84.16
2017-08-27T03:55:07.662Z,84.02
2017-08-27T03:57:35.059Z,84.09
2017-08-27T04:00:02.458Z,84.23
2017-08-27T04:02:30.370Z,84.44
2017-08-27T04:04:57.774Z,84.63
2017-08-27T04:07:25.171Z,84.76
2017-08-27T04:09:52.610Z,84.57
2017-08-27T04:12:20.011Z,84.36
2017-08-27T04:14:47.402Z,84.44
2017-08-27T04:17:14.962Z,84.58
2017-08-27T04:19:42.371Z,84.74
2017-08-27T04:22:09.775Z,84.88
2017-08-27T04:24:37.284Z,84.90
2017-08-27T04:27:04.682Z,84.96
2017-08-27T04:29:32.079Z,85.05
2017-08-27T04:31:59.495Z,85.15
2017-08-27T04:34:26.915Z,85.23
2017-08-27T04:36:54.318Z,85.39
2017-08-27T04:39:21.868Z,85.50
2017-08-27T04:41:49.264Z,85.51
2017-08-27T04:44:16.659Z,85.60
2017-08-27T04:46:44.166Z,85.69
2017-08-27T04:49:11.565Z,85.60
2017-08-27T04:51:38.969Z,85.88
2017-08-27T04:54:06.395Z,85.83
2017-08-27T04:56:33.798Z,85.96
2017-08-27T04:59:01.194Z,86.02
2017-08-27T05:01:28.766Z,86.05
2017-08-27T05:03:56.164Z,86.12
2017-08-27T05:06:24.586Z,86.28
2017-08-27T05:08:53.001Z,86.75
2017-08-27T05:11:21.123Z,86.44
2017-08-27T05:13:48.551Z,86.28
2017-08-27T05:16:16.107Z,86.24
2017-08-27T05:18:43.503Z,86.15
2017-08-27T05:21:10.902Z,86.24
2017-08-27T05:23:38.667Z,86.25
2017-08-27T05:26:06.107Z,86.09
2017-08-27T05:28:33.506Z,86.10
2017-08-27T05:31:01.063Z,86.26
2017-08-27T05:33:28.485Z,86.26
2017-08-27T05:35:55.879Z,86.32
2017-08-27T05:38:23.311Z,86.37
2017-08-27T05:40:50.727Z,86.11
2017-08-27T05:43:18.137Z,85.81
2017-08-27T05:45:45.679Z,85.16
2017-08-27T05:48:13.093Z,85.53
2017-08-27T05:50:40.478Z,85.76
2017-08-27T05:53:08.038Z,85.85
2017-08-27T05:55:35.431Z,85.87
2017-08-27T05:58:02.846Z,85.70
2017-08-27T06:00:30.292Z,85.47
2017-08-27T06:02:57.694Z,85.45
2017-08-27T06:05:25.091Z,85.35
2017-08-27T06:07:52.644Z,85.28
2017-08-27T06:10:20.035Z,85.15
2017-08-27T06:12:47.432Z,84.80
2017-08-27T06:15:14.834Z,84.32
2017-08-27T06:17:42.231Z,84.19
2017-08-27T06:20:09.634Z,83.60
2017-08-27T06:22:37.186Z,83.20
2017-08-27T06:25:04.578Z,83.08
2017-08-27T06:27:31.987Z,82.91
2017-08-27T06:29:59.539Z,82.38
2017-08-27T06:32:26.944Z,82.22
2017-08-27T06:34:54.354Z,82.62
2017-08-27T06:37:21.778Z,82.46
2017-08-27T06:39:49.184Z,81.69
2017-08-27T06:42:16.579Z,81.64
2017-08-27T06:44:44.145Z,81.14
2017-08-27T06:47:11.544Z,81.11
2017-08-27T06:49:38.954Z,81.12
2017-08-27T06:52:06.466Z,79.90
2017-08-27T06:54:33.862Z,80.40
2017-08-27T06:57:01.263Z,79.78
2017-08-27T06:59:28.694Z,79.87
2017-08-27T07:01:56.099Z,78.86
2017-08-27T07:04:23.497Z,78.71
2017-08-27T07:06:50.934Z,79.01
2017-08-27T07:09:18.339Z,78.34
2017-08-27T07:11:45.754Z,77.76
2017-08-27T07:14:13.683Z,77.59
2017-08-27T07:16:41.088Z,76.47
2017-08-27T07:19:08.506Z,76.43
2017-08-27T07:21:36.063Z,76.05
2017-08-27T07:24:03.472Z,75.68
2017-08-27T07:26:30.866Z,75.27
2017-08-27T07:28:58.311Z,77.76
2017-08-27T07:31:25.706Z,77.46
2017-08-27T07:33:53.105Z,77.33
2017-08-27T07:36:20.650Z,76.45
2017-08-27T07:38:48.047Z,77.00
2017-08-27T07:41:15.443Z,77.39
2017-08-27T07:43:42.864Z,76.31
2017-08-27T07:46:10.258Z,74.84
2017-08-27T07:48:37.655Z,74.55
2017-08-27T07:51:05.204Z,73.63
2017-08-27T07:53:32.598Z,74.99
2017-08-27T07:55:59.994Z,75.29
2017-08-27T07:58:27.414Z,74.14
2017-08-27T08:00:54.810Z,73.43
2017-08-27T08:03:22.212Z,73.04
2017-08-27T08:05:49.724Z,72.17
2017-08-27T08:08:17.114Z,71.37
2017-08-27T08:10:44.516Z,72.60
2017-08-27T08:13:12.364Z,71.20
2017-08-27T08:15:39.760Z,70.99
2017-08-27T08:18:07.155Z,70.14
2017-08-27T08:20:34.662Z,70.34
2017-08-27T08:23:03.070Z,71.04
2017-08-27T08:25:30.467Z,70.79
2017-08-27T08:27:58.051Z,71.41
2017-08-27T08:30:25.446Z,72.16
2017-08-27T08:32:52.851Z,68.98
2017-08-27T08:35:20.599Z,70.17
2017-08-27T08:37:47.991Z,67.76
2017-08-27T08:40:15.390Z,68.95
2017-08-27T08:42:42.814Z,67.46
2017-08-27T08:45:10.227Z,68.27
2017-08-27T08:47:37.627Z,67.09
2017-08-27T08:50:05.171Z,66.42
2017-08-27T08:52:32.574Z,69.44
2017-08-27T08:54:59.976Z,68.88
2017-08-27T08:57:27.414Z,67.80
2017-08-27T08:59:54.807Z,67.91
2017-08-27T09:02:22.202Z,65.60
2017-08-27T09:04:49.616Z,63.57
2017-08-27T09:07:17.010Z,64.74
2017-08-27T09:09:44.614Z,63.10
2017-08-27T09:12:12.159Z,64.25
2017-08-27T09:14:39.579Z,63.59
2017-08-27T09:17:06.975Z,62.58
2017-08-27T09:19:34.730Z,63.89
2017-08-27T09:22:02.127Z,63.38
2017-08-27T09:24:29.523Z,63.57
2017-08-27T09:26:56.943Z,62.93
2017-08-27T09:29:24.334Z,59.99
2017-08-27T09:31:51.730Z,58.59
2017-08-27T09:34:19.174Z,57.69
2017-08-27T09:36:46.570Z,61.82
2017-08-27T09:39:13.966Z,57.93
2017-08-27T09:41:41.555Z,53.87
2017-08-27T09:44:08.955Z,55.88
2017-08-27T09:46:36.354Z,55.21
2017-08-27T09:49:04.595Z,53.66
2017-08-27T09:51:31.982Z,57.39
2017-08-27T09:53:59.411Z,54.14
2017-08-27T09:56:26.958Z,55.93
2017-08-27T09:58:54.356Z,53.06
2017-08-27T10:01:21.751Z,52.49
2017-08-27T10:03:49.267Z,49.38
2017-08-27T10:06:16.658Z,50.14
2017-08-27T10:08:44.067Z,47.84
2017-08-27T10:11:11.507Z,46.58
2017-08-27T10:13:38.982Z,50.24
2017-08-27T10:16:06.379Z,46.84
2017-08-27T10:18:33.807Z,48.63
2017-08-27T10:21:01.208Z,48.97
2017-08-27T10:23:28.617Z,49.64
2017-08-27T10:25:56.034Z,49.61
2017-08-27T10:28:23.435Z,49.54
2017-08-27T10:30:50.831Z,50.83
2017-08-27T10:33:18.256Z,49.05
2017-08-27T10:35:45.646Z,47.48
2017-08-27T10:38:13.048Z,47.50
2017-08-27T10:40:40.590Z,45.00
2017-08-27T10:43:08.756Z,47.69
2017-08-27T10:45:36.176Z,46.14
2017-08-27T10:48:03.927Z,46.20
2017-08-27T10:50:31.331Z,42.78
2017-08-27T10:52:58.718Z,43.11
2017-08-27T10:55:26.234Z,43.54
2017-08-27T10:57:53.635Z,45.23
2017-08-27T11:00:21.032Z,43.75
2017-08-27T11:02:48.437Z,47.74
2017-08-27T11:05:15.838Z,47.30
2017-08-27T11:07:43.238Z,47.04
2017-08-27T11:10:11.126Z,47.06
2017-08-27T11:12:38.527Z,45.33
2017-08-27T11:15:05.918Z,45.76
2017-08-27T11:17:33.712Z,40.69
2017-08-27T11:20:01.118Z,43.69
2017-08-27T11:22:28.519Z,42.93
2017-08-27T11:24:55.959Z,42.78
2017-08-27T11:27:23.390Z,41.51
2017-08-27T11:29:50.754Z,41.94
2017-08-27T11:32:18.302Z,40.46
2017-08-27T11:34:45.703Z,42.01
2017-08-27T11:37:13.103Z,42.64
2017-08-27T11:39:40.551Z,42.04
2017-08-27T11:42:07.955Z,41.25
2017-08-27T11:44:35.351Z,38.44
2017-08-27T11:47:02.903Z,40.93
2017-08-27T11:49:30.302Z,44.56
2017-08-27T11:51:57.690Z,40.39
2017-08-27T11:54:25.448Z,40.07
2017-08-27T11:56:52.847Z,43.69
2017-08-27T11:59:20.249Z,43.99
2017-08-27T12:01:47.698Z,44.28
2017-08-27T12:04:15.100Z,46.01
2017-08-27T12:06:42.495Z,48.33
2017-08-27T12:09:10.003Z,44.50
2017-08-27T12:11:37.400Z,41.50
2017-08-27T12:14:04.806Z,43.76
2017-08-27T12:16:32.692Z,41.89
2017-08-27T12:19:00.092Z,44.25
2017-08-27T12:21:27.486Z,43.52
2017-08-27T12:23:55.002Z,43.56
2017-08-27T12:26:22.408Z,42.69
2017-08-27T12:28:49.794Z,42.74
2017-08-27T12:31:17.935Z,43.58
2017-08-27T12:33:45.822Z,42.74
2017-08-27T12:36:13.214Z,44.40
2017-08-27T12:38:40.655Z,39.61
2017-08-27T12:41:08.058Z,44.57
2017-08-27T12:43:35.463Z,46.55
2017-08-27T12:46:03.590Z,44.46
2017-08-27T12:48:30.990Z,40.88
2017-08-27T12:50:59.098Z,41.36
2017-08-27T12:53:26.658Z,43.85
2017-08-27T12:55:54.436Z,40.61
2017-08-27T12:58:22.378Z,41.88
2017-08-27T13:00:50.671Z,40.13
2017-08-27T13:03:18.092Z,40.09
2017-08-27T13:05:45.483Z,40.69
2017-08-27T13:08:12.899Z,42.49
2017-08-27T13:10:40.290Z,38.34
2017-08-27T13:13:07.690Z,42.16
2017-08-27T13:15:35.134Z,41.38
2017-08-27T13:18:02.550Z,42.29
2017-08-27T13:20:29.950Z,37.24
2017-08-27T13:22:57.459Z,38.95
2017-08-27T13:25:24.854Z,40.58
2017-08-27T13:27:52.271Z,40.51
2017-08-27T13:30:19.679Z,42.23
2017-08-27T13:32:47.074Z,41.90
2017-08-27T13:35:14.471Z,38.54
2017-08-27T13:37:42.024Z,38.42
2017-08-27T13:40:09.423Z,39.06
2017-08-27T13:42:36.818Z,41.26
2017-08-27T13:45:04.655Z,40.86
2017-08-27T13:47:32.063Z,41.79
2017-08-27T13:49:59.464Z,40.98
2017-08-27T13:52:27.215Z,39.81
2017-08-27T13:54:54.619Z,39.97
2017-08-27T13:57:22.014Z,40.29
2017-08-27T13:59:49.576Z,40.63
2017-08-27T14:02:16.988Z,41.77
2017-08-27T14:04:44.386Z,41.54
2017-08-27T14:07:11.810Z,40.83
2017-08-27T14:09:39.211Z,41.59
2017-08-27T14:12:06.608Z,42.69
2017-08-27T14:14:34.546Z,42.42
2017-08-27T14:17:01.949Z,42.04
2017-08-27T14:19:29.364Z,42.15
2017-08-27T14:21:57.123Z,42.53
2017-08-27T14:24:24.519Z,42.73
2017-08-27T14:26:51.931Z,41.54
2017-08-27T14:29:19.350Z,41.95
2017-08-27T14:31:46.751Z,43.03
2017-08-27T14:34:14.146Z,46.29
2017-08-27T14:36:41.699Z,42.24
2017-08-27T14:39:09.101Z,41.33
2017-08-27T14:41:36.499Z,40.45
2017-08-27T14:44:04.003Z,39.20
2017-08-27T14:46:31.405Z,39.63
2017-08-27T14:48:58.795Z,41.90
2017-08-27T14:51:26.344Z,41.90
2017-08-27T14:53:53.763Z,41.55
2017-08-27T14:56:21.162Z,41.15
2017-08-27T14:58:48.581Z,41.01
2017-08-27T15:01:15.983Z,40.11
2017-08-27T15:03:43.390Z,40.50
2017-08-27T15:06:10.902Z,41.07
2017-08-27T15:08:38.303Z,40.89
2017-08-27T15:11:05.699Z,42.13
2017-08-27T15:13:33.514Z,42.27
2017-08-27T15:16:00.920Z,43.09
2017-08-27T15:18:28.322Z,41.28
2017-08-27T15:20:55.878Z,42.38
2017-08-27T15:23:23.279Z,42.27
2017-08-27T15:25:50.675Z,41.19
2017-08-27T15:28:18.227Z,41.27
2017-08-27T15:30:45.623Z,41.63
2017-08-27T15:33:13.024Z,41.27
2017-08-27T15:35:41.782Z,41.06
2017-08-27T15:38:09.178Z,40.75
2017-08-27T15:40:36.582Z,41.05
2017-08-27T15:43:04.122Z,41.56
2017-08-27T15:45:31.531Z,43.43
2017-08-27T15:47:58.922Z,42.94
2017-08-27T15:50:26.331Z,43.27
2017-08-27T15:52:53.731Z,42.20
2017-08-27T15:55:21.126Z,43.40
2017-08-27T15:57:48.577Z,42.95
2017-08-27T16:00:15.986Z,42.90
2017-08-27T16:02:43.442Z,41.93
2017-08-27T16:05:11.028Z,41.59
2017-08-27T16:07:38.419Z,43.31
2017-08-27T16:10:05.847Z,43.31
2017-08-27T16:12:33.314Z,44.59
2017-08-27T16:15:00.711Z,43.87
2017-08-27T16:17:28.118Z,43.95
2017-08-27T16:19:55.633Z,42.72
2017-08-27T16:22:23.035Z,42.40
2017-08-27T16:24:50.435Z,44.05
2017-08-27T16:27:17.992Z,45.42
2017-08-27T16:29:45.407Z,45.36
2017-08-27T16:32:12.874Z,44.45
2017-08-27T16:34:40.288Z,45.25
2017-08-27T16:37:07.698Z,45.44
2017-08-27T16:39:35.091Z,45.36
2017-08-27T16:42:02.945Z,45.08
2017-08-27T16:44:30.741Z,45.38
2017-08-27T16:47:10.131Z,44.38
2017-08-27T16:49:37.536Z,44.22
2017-08-27T16:52:04.936Z,44.91
2017-08-27T16:54:32.479Z,45.97
2017-08-27T16:56:59.883Z,46.41
2017-08-27T16:59:27.270Z,46.40
2017-08-27T17:01:54.819Z,47.22
2017-08-27T17:04:22.286Z,46.79
2017-08-27T17:06:49.683Z,47.25
2017-08-27T17:09:17.096Z,47.12
2017-08-27T17:11:44.491Z,48.23
2017-08-27T17:14:12.027Z,48.54
2017-08-27T17:16:39.476Z,48.08
2017-08-27T17:19:06.875Z,47.92
2017-08-27T17:21:34.271Z,48.18
2017-08-27T17:24:12.347Z,48.42
2017-08-27T17:26:39.772Z,49.63
2017-08-27T17:29:07.171Z,49.02
2017-08-27T17:31:34.870Z,49.35
2017-08-27T17:34:05.443Z,49.44
2017-08-27T17:36:32.876Z,49.53
2017-08-27T17:39:00.431Z,50.54
2017-08-27T17:41:27.841Z,50.70
2017-08-27T17:43:55.256Z,52.04
2017-08-27T17:46:22.812Z,53.50
2017-08-27T17:48:50.232Z,54.66
2017-08-27T17:51:17.649Z,55.14
2017-08-27T17:53:45.953Z,55.60
2017-08-27T17:56:14.227Z,56.02
2017-08-27T17:58:41.636Z,56.56
2017-08-27T18:01:09.434Z,55.80
2017-08-27T18:03:36.883Z,55.07
2017-08-27T18:06:04.300Z,54.51
2017-08-27T18:08:31.814Z,54.63
2017-08-27T18:10:59.224Z,54.02
2017-08-27T18:13:26.622Z,54.60
2017-08-27T18:15:54.177Z,53.60
2017-08-27T18:18:21.567Z,54.89
2017-08-27T18:20:48.964Z,55.77
2017-08-27T18:23:16.520Z,55.70
2017-08-27T18:25:43.914Z,55.51
2017-08-27T18:28:11.311Z,56.20
2017-08-27T18:30:38.864Z,55.21
2017-08-27T18:33:06.269Z,56.50
2017-08-27T18:35:34.095Z,56.37
2017-08-27T18:38:02.418Z,56.53
2017-08-27T18:40:29.821Z,56.07
2017-08-27T18:42:57.347Z,56.45
2017-08-27T18:45:24.895Z,56.70
2017-08-27T18:47:52.304Z,58.14
2017-08-27T18:50:19.717Z,59.04
2017-08-27T18:52:47.163Z,59.02
2017-08-27T18:55:14.559Z,59.78
2017-08-27T18:57:42.020Z,58.90
2017-08-27T19:00:09.439Z,60.48
2017-08-27T19:02:36.839Z,60.91
2017-08-27T19:05:04.243Z,61.20
2017-08-27T19:07:31.808Z,61.34
2017-08-27T19:09:59.227Z,59.99
2017-08-27T19:12:26.652Z,59.88
2017-08-27T19:14:54.078Z,59.11
2017-08-27T19:17:21.475Z,58.75
2017-08-27T19:19:48.875Z,58.58
2017-08-27T19:22:16.291Z,59.36
2017-08-27T19:24:43.714Z,59.65
2017-08-27T19:27:11.118Z,59.28
2017-08-27T19:29:38.670Z,60.36
2017-08-27T19:32:06.076Z,60.54
2017-08-27T19:34:33.470Z,61.26
2017-08-27T19:37:01.031Z,60.38
2017-08-27T19:39:28.428Z,60.15
2017-08-27T19:41:55.823Z,60.54
2017-08-27T19:44:23.246Z,59.93
2017-08-27T19:46:50.648Z,60.44
2017-08-27T19:49:18.039Z,60.44
2017-08-27T19:51:45.492Z,60.59
2017-08-27T19:54:12.887Z,60.71
2017-08-27T19:56:40.289Z,60.25
2017-08-27T19:59:07.717Z,59.95
2017-08-27T20:01:35.346Z,60.44
2017-08-27T20:04:02.750Z,60.16
2017-08-27T20:06:30.160Z,60.12
2017-08-27T20:08:57.558Z,61.07
2017-08-27T20:11:24.960Z,60.24
2017-08-27T20:13:52.385Z,60.28
2017-08-27T20:16:19.782Z,60.58
2017-08-27T20:18:47.178Z,59.76
2017-08-27T20:21:14.734Z,60.17
2017-08-27T20:23:42.127Z,60.32
2017-08-27T20:26:09.524Z,60.28
2017-08-27T20:28:37.074Z,60.72
2017-08-27T20:31:04.480Z,60.57
2017-08-27T20:33:31.874Z,60.92
2017-08-27T20:35:59.430Z,61.38
2017-08-27T20:38:26.826Z,61.38
2017-08-27T20:40:54.447Z,61.98
2017-08-27T20:43:21.999Z,62.21
2017-08-27T20:45:49.393Z,62.61
2017-08-27T20:48:16.786Z,62.29
2017-08-27T20:50:44.343Z,62.85
2017-08-27T20:53:11.754Z,63.32
2017-08-27T20:55:39.155Z,63.41
2017-08-27T20:58:06.716Z,63.67
2017-08-27T21:00:34.112Z,63.92
2017-08-27T21:03:01.499Z,64.11
2017-08-27T21:05:29.056Z,63.85
2017-08-27T21:07:56.451Z,63.73
2017-08-27T21:10:23.847Z,64.03
2017-08-27T21:12:51.400Z,64.81
2017-08-27T21:15:18.796Z,64.30
2017-08-27T21:17:46.188Z,64.63
2017-08-27T21:20:13.691Z,64.69
2017-08-27T21:22:41.091Z,64.39
2017-08-27T21:25:08.483Z,64.38
2017-08-27T21:27:36.034Z,65.17
2017-08-27T21:30:03.436Z,64.17
2017-08-27T21:32:30.830Z,64.32
2017-08-27T21:34:58.267Z,64.54
2017-08-27T21:37:25.662Z,64.90
2017-08-27T21:39:53.059Z,65.05
2017-08-27T21:42:20.567Z,65.28
2017-08-27T21:44:47.966Z,65.03
2017-08-27T21:47:15.358Z,65.42
2017-08-27T21:49:43.098Z,65.00
2017-08-27T21:52:10.493Z,65.54
2017-08-27T21:54:37.895Z,65.44
2017-08-27T21:57:05.322Z,65.28
2017-08-27T21:59:32.712Z,65.21
2017-08-27T22:02:00.114Z,65.26
2017-08-27T22:04:27.999Z,65.38
2017-08-27T22:06:55.396Z,65.27
2017-08-27T22:09:22.790Z,65.35
2017-08-27T22:11:50.343Z,65.18
2017-08-27T22:14:17.743Z,65.63
2017-08-27T22:16:45.135Z,65.62
2017-08-27T22:19:12.689Z,65.79
2017-08-27T22:21:40.087Z,65.93
2017-08-27T22:24:07.490Z,65.38
2017-08-27T22:26:35.048Z,65.55
2017-08-27T22:29:02.451Z,65.47
2017-08-27T22:31:29.854Z,65.76
2017-08-27T22:33:57.402Z,65.78
2017-08-27T22:36:24.803Z,65.87
2017-08-27T22:38:52.202Z,66.00
2017-08-27T22:41:19.754Z,66.70
2017-08-27T22:43:47.151Z,66.10
2017-08-27T22:46:14.547Z,66.46
2017-08-27T22:48:42.090Z,66.57
2017-08-27T22:51:09.504Z,66.63
2017-08-27T22:53:36.943Z,66.50
2017-08-27T22:56:04.352Z,67.03
2017-08-27T22:58:31.746Z,66.61
2017-08-27T23:00:59.146Z,66.66
2017-08-27T23:03:26.554Z,66.45
2017-08-27T23:05:53.946Z,66.84
2017-08-27T23:08:21.349Z,67.09
2017-08-27T23:10:48.898Z,67.03
2017-08-27T23:13:16.298Z,67.00
2017-08-27T23:15:43.691Z,67.53
2017-08-27T23:18:11.134Z,67.54
2017-08-27T23:20:38.539Z,67.00
2017-08-27T23:23:05.935Z,67.36
2017-08-27T23:25:33.491Z,67.31
2017-08-27T23:28:00.890Z,67.66
2017-08-27T23:30:28.299Z,67.19
2017-08-27T23:32:55.723Z,67.22
2017-08-27T23:35:23.127Z,66.84
2017-08-27T23:37:50.538Z,66.86
2017-08-27T23:40:17.994Z,66.83
2017-08-27T23:42:45.390Z,67.26
2017-08-27T23:45:12.783Z,66.88
2017-08-27T23:47:40.188Z,67.38
2017-08-27T23:50:07.587Z,67.37
2017-08-27T23:52:34.978Z,67.42
2017-08-27T23:55:03.390Z,67.81
2017-08-27T23:57:30.787Z,67.56
2017-08-27T23:59:58.183Z,67.81
